sensor_id;sensor_type;location;lat;lon;timestamp;P1;durP1;ratioP1;P2;durP2;ratioP2
64208;SDS011;50527;52.414;13.226;2023-12-07T05:36:56;4.32;;;2.05;;
64208;SDS011;50527;52.414;13.226;2023-12-07T05:39:21;4.75;;;2.30;;
64208;SDS011;50527;52.414;13.226;2023-12-07T05:41:47;7.95;;;2.22;;
64208;SDS011;50527;52.414;13.226;2023-12-07T05:44:12;8.55;;;3.33;;
64208;SDS011;50527;52.414;13.226;2023-12-07T05:46:39;9.32;;;3.15;;
64208;SDS011;50527;52.414;13.226;2023-12-07T05:49:08;8.05;;;2.67;;
64208;SDS011;50527;52.414;13.226;2023-12-07T05:51:34;10.48;;;3.13;;
64208;SDS011;50527;52.414;13.226;2023-12-07T05:54:00;6.93;;;3.33;;
64208;SDS011;50527;52.414;13.226;2023-12-07T05:56:26;11.93;;;3.30;;
64208;SDS011;50527;52.414;13.226;2023-12-07T05:58:51;8.18;;;3.15;;
64208;SDS011;50527;52.414;13.226;2023-12-07T06:01:17;7.13;;;2.72;;
64208;SDS011;50527;52.414;13.226;2023-12-07T06:03:44;6.00;;;3.42;;
64208;SDS011;50527;52.414;13.226;2023-12-07T06:06:10;9.77;;;3.33;;
64208;SDS011;50527;52.414;13.226;2023-12-07T06:08:36;7.43;;;2.63;;
64208;SDS011;50527;52.414;13.226;2023-12-07T06:11:02;6.78;;;3.13;;
64208;SDS011;50527;52.414;13.226;2023-12-07T06:13:28;7.88;;;3.33;;
64208;SDS011;50527;52.414;13.226;2023-12-07T06:15:53;7.75;;;2.80;;
64208;SDS011;50527;52.414;13.226;2023-12-07T06:18:19;8.32;;;3.20;;
64208;SDS011;50527;52.414;13.226;2023-12-07T06:20:44;10.80;;;3.40;;
64208;SDS011;50527;52.414;13.226;2023-12-07T06:23:10;7.47;;;2.90;;
64208;SDS011;50527;52.414;13.226;2023-12-07T06:25:38;6.38;;;3.35;;
64208;SDS011;50527;52.414;13.226;2023-12-07T06:28:04;9.10;;;2.92;;
64208;SDS011;50527;52.414;13.226;2023-12-07T06:30:30;8.98;;;2.97;;
64208;SDS011;50527;52.414;13.226;2023-12-07T06:32:55;10.25;;;3.53;;
64208;SDS011;50527;52.414;13.226;2023-12-07T06:35:21;7.95;;;2.97;;
64208;SDS011;50527;52.414;13.226;2023-12-07T06:37:46;11.45;;;3.28;;
64208;SDS011;50527;52.414;13.226;2023-12-07T06:40:12;5.40;;;2.53;;
64208;SDS011;50527;52.414;13.226;2023-12-07T06:42:37;7.80;;;3.17;;
64208;SDS011;50527;52.414;13.226;2023-12-07T06:45:03;10.30;;;3.58;;
64208;SDS011;50527;52.414;13.226;2023-12-07T06:47:29;7.57;;;3.17;;
64208;SDS011;50527;52.414;13.226;2023-12-07T06:49:55;8.55;;;3.42;;
64208;SDS011;50527;52.414;13.226;2023-12-07T06:52:21;13.75;;;3.55;;
64208;SDS011;50527;52.414;13.226;2023-12-07T06:54:46;10.25;;;3.45;;
64208;SDS011;50527;52.414;13.226;2023-12-07T06:57:12;11.15;;;3.97;;
64208;SDS011;50527;52.414;13.226;2023-12-07T06:59:38;14.90;;;4.38;;
64208;SDS011;50527;52.414;13.226;2023-12-07T07:02:03;12.63;;;4.60;;
64208;SDS011;50527;52.414;13.226;2023-12-07T07:04:29;8.00;;;3.50;;
64208;SDS011;50527;52.414;13.226;2023-12-07T07:06:54;8.75;;;3.53;;
64208;SDS011;50527;52.414;13.226;2023-12-07T07:09:20;7.25;;;3.13;;
64208;SDS011;50527;52.414;13.226;2023-12-07T07:11:47;10.80;;;3.70;;
64208;SDS011;50527;52.414;13.226;2023-12-07T07:14:13;12.77;;;3.65;;
64208;SDS011;50527;52.414;13.226;2023-12-07T07:16:38;8.32;;;3.28;;
64208;SDS011;50527;52.414;13.226;2023-12-07T07:19:04;11.70;;;3.92;;
64208;SDS011;50527;52.414;13.226;2023-12-07T07:21:29;8.95;;;3.03;;
64208;SDS011;50527;52.414;13.226;2023-12-07T07:23:55;9.95;;;3.72;;
64208;SDS011;50527;52.414;13.226;2023-12-07T07:26:21;7.50;;;3.00;;
64208;SDS011;50527;52.414;13.226;2023-12-07T07:28:46;8.70;;;3.40;;
64208;SDS011;50527;52.414;13.226;2023-12-07T07:31:12;6.75;;;3.22;;
64208;SDS011;50527;52.414;13.226;2023-12-07T07:33:37;13.45;;;4.22;;
64208;SDS011;50527;52.414;13.226;2023-12-07T07:36:03;9.73;;;3.78;;
64208;SDS011;50527;52.414;13.226;2023-12-07T07:38:29;10.25;;;3.53;;
64208;SDS011;50527;52.414;13.226;2023-12-07T07:40:54;8.23;;;3.22;;
64208;SDS011;50527;52.414;13.226;2023-12-07T07:43:20;8.95;;;3.78;;
64208;SDS011;50527;52.414;13.226;2023-12-07T07:45:45;7.18;;;2.92;;
64208;SDS011;50527;52.414;13.226;2023-12-07T07:48:11;7.82;;;3.83;;
64208;SDS011;50527;52.414;13.226;2023-12-07T07:50:37;8.60;;;3.42;;
64208;SDS011;50527;52.414;13.226;2023-12-07T07:53:02;10.02;;;3.85;;
64208;SDS011;50527;52.414;13.226;2023-12-07T07:55:29;11.88;;;3.47;;
64208;SDS011;50527;52.414;13.226;2023-12-07T07:57:54;10.20;;;3.53;;
64208;SDS011;50527;52.414;13.226;2023-12-07T08:00:20;6.47;;;3.33;;
64208;SDS011;50527;52.414;13.226;2023-12-07T08:02:46;9.75;;;4.53;;
64208;SDS011;50527;52.414;13.226;2023-12-07T08:05:11;8.65;;;3.78;;
64208;SDS011;50527;52.414;13.226;2023-12-07T08:07:37;9.77;;;4.18;;
64208;SDS011;50527;52.414;13.226;2023-12-07T08:10:04;21.35;;;4.18;;
64208;SDS011;50527;52.414;13.226;2023-12-07T08:12:30;11.57;;;4.32;;
64208;SDS011;50527;52.414;13.226;2023-12-07T08:14:55;11.90;;;4.35;;
64208;SDS011;50527;52.414;13.226;2023-12-07T08:17:21;14.25;;;4.22;;
64208;SDS011;50527;52.414;13.226;2023-12-07T08:19:47;8.05;;;3.35;;
64208;SDS011;50527;52.414;13.226;2023-12-07T08:22:12;10.38;;;4.03;;
64208;SDS011;50527;52.414;13.226;2023-12-07T08:24:41;15.15;;;4.60;;
64208;SDS011;50527;52.414;13.226;2023-12-07T08:27:06;8.32;;;3.65;;
64208;SDS011;50527;52.414;13.226;2023-12-07T08:29:32;11.38;;;3.55;;
64208;SDS011;50527;52.414;13.226;2023-12-07T08:31:58;9.00;;;3.33;;
64208;SDS011;50527;52.414;13.226;2023-12-07T08:34:24;9.30;;;3.03;;
64208;SDS011;50527;52.414;13.226;2023-12-07T08:36:50;8.30;;;3.38;;
64208;SDS011;50527;52.414;13.226;2023-12-07T08:39:15;5.40;;;2.72;;
64208;SDS011;50527;52.414;13.226;2023-12-07T08:41:41;7.75;;;3.20;;
64208;SDS011;50527;52.414;13.226;2023-12-07T08:44:07;9.05;;;3.25;;
64208;SDS011;50527;52.414;13.226;2023-12-07T08:46:32;9.15;;;3.80;;
64208;SDS011;50527;52.414;13.226;2023-12-07T08:48:58;7.28;;;3.35;;
64208;SDS011;50527;52.414;13.226;2023-12-07T08:51:24;8.82;;;3.67;;
64208;SDS011;50527;52.414;13.226;2023-12-07T08:53:49;15.23;;;3.83;;
64208;SDS011;50527;52.414;13.226;2023-12-07T08:56:16;6.15;;;3.03;;
64208;SDS011;50527;52.414;13.226;2023-12-07T08:58:42;9.27;;;3.65;;
64208;SDS011;50527;52.414;13.226;2023-12-07T09:01:09;10.40;;;3.65;;
64208;SDS011;50527;52.414;13.226;2023-12-07T09:03:34;10.80;;;4.13;;
64208;SDS011;50527;52.414;13.226;2023-12-07T09:06:00;11.73;;;4.05;;
64208;SDS011;50527;52.414;13.226;2023-12-07T09:08:26;7.75;;;3.58;;
64208;SDS011;50527;52.414;13.226;2023-12-07T09:10:51;9.70;;;3.78;;
64208;SDS011;50527;52.414;13.226;2023-12-07T09:13:17;8.90;;;3.88;;
64208;SDS011;50527;52.414;13.226;2023-12-07T09:15:43;9.45;;;3.53;;
64208;SDS011;50527;52.414;13.226;2023-12-07T09:18:09;7.90;;;3.13;;
64208;SDS011;50527;52.414;13.226;2023-12-07T09:20:36;9.80;;;3.90;;
64208;SDS011;50527;52.414;13.226;2023-12-07T09:23:02;10.02;;;3.53;;
64208;SDS011;50527;52.414;13.226;2023-12-07T09:25:28;11.73;;;4.25;;
64208;SDS011;50527;52.414;13.226;2023-12-07T09:27:55;9.57;;;3.55;;
64208;SDS011;50527;52.414;13.226;2023-12-07T09:30:21;12.10;;;4.45;;
64208;SDS011;50527;52.414;13.226;2023-12-07T09:32:46;14.13;;;4.40;;
64208;SDS011;50527;52.414;13.226;2023-12-07T09:35:12;13.52;;;3.65;;
64208;SDS011;50527;52.414;13.226;2023-12-07T09:37:43;20.65;;;5.25;;
64208;SDS011;50527;52.414;13.226;2023-12-07T09:40:19;12.02;;;4.35;;
64208;SDS011;50527;52.414;13.226;2023-12-07T09:42:46;13.95;;;4.68;;
64208;SDS011;50527;52.414;13.226;2023-12-07T09:45:12;10.80;;;3.90;;
64208;SDS011;50527;52.414;13.226;2023-12-07T09:47:43;10.40;;;3.75;;
64208;SDS011;50527;52.414;13.226;2023-12-07T09:50:12;13.48;;;5.03;;
64208;SDS011;50527;52.414;13.226;2023-12-07T09:52:41;9.45;;;3.75;;
64208;SDS011;50527;52.414;13.226;2023-12-07T09:55:07;9.77;;;3.95;;
64208;SDS011;50527;52.414;13.226;2023-12-07T09:57:34;14.40;;;4.45;;
64208;SDS011;50527;52.414;13.226;2023-12-07T10:00:01;13.35;;;4.15;;
64208;SDS011;50527;52.414;13.226;2023-12-07T10:02:27;10.30;;;3.60;;
64208;SDS011;50527;52.414;13.226;2023-12-07T10:05:06;16.67;;;5.68;;
64208;SDS011;50527;52.414;13.226;2023-12-07T10:07:35;9.93;;;3.67;;
64208;SDS011;50527;52.414;13.226;2023-12-07T10:10:03;9.52;;;3.38;;
64208;SDS011;50527;52.414;13.226;2023-12-07T10:12:29;13.18;;;4.25;;
64208;SDS011;50527;52.414;13.226;2023-12-07T10:14:55;9.15;;;3.80;;
64208;SDS011;50527;52.414;13.226;2023-12-07T10:17:21;13.57;;;4.88;;
64208;SDS011;50527;52.414;13.226;2023-12-07T10:19:55;12.85;;;4.60;;
64208;SDS011;50527;52.414;13.226;2023-12-07T10:22:33;13.25;;;4.32;;
64208;SDS011;50527;52.414;13.226;2023-12-07T10:24:59;13.70;;;4.95;;
64208;SDS011;50527;52.414;13.226;2023-12-07T10:27:25;12.57;;;4.47;;
64208;SDS011;50527;52.414;13.226;2023-12-07T10:29:53;11.18;;;4.35;;
64208;SDS011;50527;52.414;13.226;2023-12-07T10:32:18;11.10;;;4.00;;
64208;SDS011;50527;52.414;13.226;2023-12-07T10:34:44;11.57;;;4.28;;
64208;SDS011;50527;52.414;13.226;2023-12-07T10:37:10;10.63;;;3.95;;
64208;SDS011;50527;52.414;13.226;2023-12-07T10:39:35;16.40;;;5.07;;
64208;SDS011;50527;52.414;13.226;2023-12-07T10:42:02;12.20;;;4.38;;
64208;SDS011;50527;52.414;13.226;2023-12-07T10:44:34;11.10;;;4.47;;
64208;SDS011;50527;52.414;13.226;2023-12-07T10:47:04;21.83;;;6.28;;
64208;SDS011;50527;52.414;13.226;2023-12-07T10:49:30;11.77;;;4.43;;
64208;SDS011;50527;52.414;13.226;2023-12-07T10:52:00;17.67;;;5.18;;
64208;SDS011;50527;52.414;13.226;2023-12-07T10:57:27;13.43;;;3.70;;
64208;SDS011;50527;52.414;13.226;2023-12-07T10:59:55;12.40;;;4.53;;
64208;SDS011;50527;52.414;13.226;2023-12-07T11:02:22;10.38;;;3.83;;
64208;SDS011;50527;52.414;13.226;2023-12-07T11:04:49;10.85;;;3.95;;
64208;SDS011;50527;52.414;13.226;2023-12-07T11:07:16;14.13;;;4.80;;
64208;SDS011;50527;52.414;13.226;2023-12-07T11:09:47;11.43;;;3.65;;
64208;SDS011;50527;52.414;13.226;2023-12-07T11:12:18;11.05;;;4.00;;
64208;SDS011;50527;52.414;13.226;2023-12-07T11:15:03;12.65;;;5.38;;
64208;SDS011;50527;52.414;13.226;2023-12-07T11:17:30;16.35;;;5.15;;
64208;SDS011;50527;52.414;13.226;2023-12-07T11:20:18;13.68;;;4.45;;
64208;SDS011;50527;52.414;13.226;2023-12-07T11:22:44;12.18;;;4.50;;
64208;SDS011;50527;52.414;13.226;2023-12-07T11:25:10;14.63;;;6.00;;
64208;SDS011;50527;52.414;13.226;2023-12-07T11:27:36;17.65;;;5.65;;
64208;SDS011;50527;52.414;13.226;2023-12-07T11:30:03;16.02;;;5.28;;
64208;SDS011;50527;52.414;13.226;2023-12-07T11:32:29;12.85;;;4.90;;
64208;SDS011;50527;52.414;13.226;2023-12-07T11:34:54;23.48;;;10.35;;
64208;SDS011;50527;52.414;13.226;2023-12-07T11:37:31;38.00;;;22.00;;
64208;SDS011;50527;52.414;13.226;2023-12-07T11:40:37;27.95;;;15.80;;
64208;SDS011;50527;52.414;13.226;2023-12-07T11:43:06;19.75;;;11.30;;
64208;SDS011;50527;52.414;13.226;2023-12-07T11:45:35;25.40;;;13.55;;
64208;SDS011;50527;52.414;13.226;2023-12-07T11:48:11;23.48;;;11.50;;
64208;SDS011;50527;52.414;13.226;2023-12-07T11:53:27;25.35;;;14.50;;
64208;SDS011;50527;52.414;13.226;2023-12-07T11:55:57;27.90;;;13.27;;
64208;SDS011;50527;52.414;13.226;2023-12-07T11:58:26;20.65;;;11.70;;
64208;SDS011;50527;52.414;13.226;2023-12-07T12:00:53;19.55;;;12.85;;
64208;SDS011;50527;52.414;13.226;2023-12-07T12:03:19;23.90;;;12.15;;
64208;SDS011;50527;52.414;13.226;2023-12-07T12:05:45;23.70;;;12.55;;
64208;SDS011;50527;52.414;13.226;2023-12-07T12:08:11;28.00;;;15.05;;
64208;SDS011;50527;52.414;13.226;2023-12-07T12:10:37;25.15;;;12.90;;
64208;SDS011;50527;52.414;13.226;2023-12-07T12:13:05;23.90;;;13.35;;
64208;SDS011;50527;52.414;13.226;2023-12-07T12:15:31;24.05;;;13.13;;
64208;SDS011;50527;52.414;13.226;2023-12-07T12:17:57;25.98;;;12.27;;
64208;SDS011;50527;52.414;13.226;2023-12-07T12:20:24;18.48;;;9.52;;
64208;SDS011;50527;52.414;13.226;2023-12-07T12:22:50;18.80;;;9.80;;
64208;SDS011;50527;52.414;13.226;2023-12-07T12:25:20;17.90;;;9.18;;
64208;SDS011;50527;52.414;13.226;2023-12-07T12:27:48;25.80;;;12.70;;
64208;SDS011;50527;52.414;13.226;2023-12-07T12:30:15;20.88;;;10.20;;
64208;SDS011;50527;52.414;13.226;2023-12-07T12:32:45;20.90;;;9.43;;
64208;SDS011;50527;52.414;13.226;2023-12-07T12:35:12;19.55;;;8.18;;
64208;SDS011;50527;52.414;13.226;2023-12-07T12:37:39;20.23;;;8.13;;
64208;SDS011;50527;52.414;13.226;2023-12-07T12:40:09;24.88;;;9.18;;
64208;SDS011;50527;52.414;13.226;2023-12-07T12:42:40;11.10;;;4.43;;
64208;SDS011;50527;52.414;13.226;2023-12-07T12:45:09;19.92;;;7.85;;
64208;SDS011;50527;52.414;13.226;2023-12-07T12:47:36;20.50;;;7.45;;
64208;SDS011;50527;52.414;13.226;2023-12-07T12:50:02;20.40;;;7.65;;
64208;SDS011;50527;52.414;13.226;2023-12-07T12:52:31;19.20;;;7.47;;
64208;SDS011;50527;52.414;13.226;2023-12-07T12:54:57;22.52;;;7.93;;
64208;SDS011;50527;52.414;13.226;2023-12-07T12:57:23;14.68;;;5.75;;
64208;SDS011;50527;52.414;13.226;2023-12-07T12:59:50;16.88;;;5.75;;
64208;SDS011;50527;52.414;13.226;2023-12-07T13:02:15;22.10;;;7.75;;
64208;SDS011;50527;52.414;13.226;2023-12-07T13:04:41;13.52;;;5.35;;
64208;SDS011;50527;52.414;13.226;2023-12-07T13:07:06;16.20;;;6.18;;
64208;SDS011;50527;52.414;13.226;2023-12-07T13:09:32;19.83;;;6.82;;
64208;SDS011;50527;52.414;13.226;2023-12-07T13:11:58;22.52;;;7.22;;
64208;SDS011;50527;52.414;13.226;2023-12-07T13:14:24;23.48;;;7.53;;
64208;SDS011;50527;52.414;13.226;2023-12-07T13:16:49;21.30;;;7.15;;
64208;SDS011;50527;52.414;13.226;2023-12-07T13:19:15;21.35;;;7.00;;
64208;SDS011;50527;52.414;13.226;2023-12-07T13:21:40;17.88;;;6.07;;
64208;SDS011;50527;52.414;13.226;2023-12-07T13:24:06;20.77;;;6.97;;
64208;SDS011;50527;52.414;13.226;2023-12-07T13:26:36;25.55;;;7.60;;
64208;SDS011;50527;52.414;13.226;2023-12-07T13:29:01;19.92;;;6.55;;
64208;SDS011;50527;52.414;13.226;2023-12-07T13:31:27;18.05;;;6.78;;
64208;SDS011;50527;52.414;13.226;2023-12-07T13:33:52;20.02;;;6.80;;
64208;SDS011;50527;52.414;13.226;2023-12-07T13:36:20;20.83;;;7.32;;
64208;SDS011;50527;52.414;13.226;2023-12-07T13:38:48;27.80;;;7.45;;
64208;SDS011;50527;52.414;13.226;2023-12-07T13:41:14;23.30;;;6.95;;
64208;SDS011;50527;52.414;13.226;2023-12-07T13:43:39;20.42;;;6.80;;
64208;SDS011;50527;52.414;13.226;2023-12-07T13:46:06;17.50;;;4.90;;
64208;SDS011;50527;52.414;13.226;2023-12-07T13:48:32;24.85;;;5.97;;
64208;SDS011;50527;52.414;13.226;2023-12-07T13:50:58;30.60;;;7.82;;
64208;SDS011;50527;52.414;13.226;2023-12-07T13:53:23;14.27;;;4.95;;
64208;SDS011;50527;52.414;13.226;2023-12-07T13:55:49;24.75;;;6.65;;
64208;SDS011;50527;52.414;13.226;2023-12-07T13:58:16;35.20;;;8.20;;
64208;SDS011;50527;52.414;13.226;2023-12-07T14:00:42;29.75;;;7.82;;
64208;SDS011;50527;52.414;13.226;2023-12-07T14:03:11;24.30;;;6.93;;
64208;SDS011;50527;52.414;13.226;2023-12-07T14:05:40;34.97;;;7.32;;
64208;SDS011;50527;52.414;13.226;2023-12-07T14:08:06;19.75;;;6.05;;
64208;SDS011;50527;52.414;13.226;2023-12-07T14:10:32;26.80;;;6.82;;
64208;SDS011;50527;52.414;13.226;2023-12-07T14:12:57;21.52;;;6.75;;
64208;SDS011;50527;52.414;13.226;2023-12-07T14:15:22;30.85;;;6.88;;
64208;SDS011;50527;52.414;13.226;2023-12-07T14:17:48;24.92;;;6.50;;
64208;SDS011;50527;52.414;13.226;2023-12-07T14:20:13;22.70;;;6.00;;
64208;SDS011;50527;52.414;13.226;2023-12-07T14:22:39;27.17;;;7.63;;
64208;SDS011;50527;52.414;13.226;2023-12-07T14:25:05;24.58;;;7.38;;
64208;SDS011;50527;52.414;13.226;2023-12-07T14:27:31;29.05;;;8.07;;
64208;SDS011;50527;52.414;13.226;2023-12-07T14:29:56;38.05;;;10.45;;
64208;SDS011;50527;52.414;13.226;2023-12-07T14:32:22;24.92;;;7.65;;
64208;SDS011;50527;52.414;13.226;2023-12-07T14:34:47;29.40;;;8.25;;
64208;SDS011;50527;52.414;13.226;2023-12-07T14:37:13;28.85;;;7.40;;
64208;SDS011;50527;52.414;13.226;2023-12-07T14:39:39;25.38;;;8.45;;
64208;SDS011;50527;52.414;13.226;2023-12-07T14:42:05;25.75;;;7.03;;
64208;SDS011;50527;52.414;13.226;2023-12-07T14:44:31;29.52;;;8.43;;
64208;SDS011;50527;52.414;13.226;2023-12-07T14:46:57;20.58;;;5.88;;
64208;SDS011;50527;52.414;13.226;2023-12-07T14:49:30;19.13;;;4.75;;
64208;SDS011;50527;52.414;13.226;2023-12-07T14:52:22;16.58;;;5.13;;
64208;SDS011;50527;52.414;13.226;2023-12-07T14:54:49;26.92;;;6.88;;
64208;SDS011;50527;52.414;13.226;2023-12-07T14:57:14;30.42;;;7.18;;
64208;SDS011;50527;52.414;13.226;2023-12-07T14:59:40;26.52;;;7.18;;
64208;SDS011;50527;52.414;13.226;2023-12-07T15:02:05;25.75;;;7.80;;
64208;SDS011;50527;52.414;13.226;2023-12-07T15:04:31;30.55;;;7.45;;
64208;SDS011;50527;52.414;13.226;2023-12-07T15:06:56;30.55;;;6.68;;
64208;SDS011;50527;52.414;13.226;2023-12-07T15:09:22;31.65;;;7.40;;
64208;SDS011;50527;52.414;13.226;2023-12-07T15:11:47;25.67;;;6.88;;
64208;SDS011;50527;52.414;13.226;2023-12-07T15:14:13;29.10;;;7.90;;
64208;SDS011;50527;52.414;13.226;2023-12-07T15:16:38;22.02;;;5.55;;
64208;SDS011;50527;52.414;13.226;2023-12-07T15:19:04;27.73;;;7.57;;
64208;SDS011;50527;52.414;13.226;2023-12-07T15:21:30;26.80;;;6.55;;
64208;SDS011;50527;52.414;13.226;2023-12-07T15:23:55;30.77;;;7.55;;
64208;SDS011;50527;52.414;13.226;2023-12-07T15:26:21;58.25;;;12.25;;
64208;SDS011;50527;52.414;13.226;2023-12-07T15:28:46;25.00;;;6.60;;
64208;SDS011;50527;52.414;13.226;2023-12-07T15:31:12;26.42;;;7.40;;
64208;SDS011;50527;52.414;13.226;2023-12-07T15:33:37;22.02;;;6.05;;
64208;SDS011;50527;52.414;13.226;2023-12-07T15:36:03;21.63;;;6.72;;
64208;SDS011;50527;52.414;13.226;2023-12-07T15:38:29;26.85;;;7.13;;
64208;SDS011;50527;52.414;13.226;2023-12-07T15:40:56;18.83;;;5.43;;
64208;SDS011;50527;52.414;13.226;2023-12-07T15:43:22;19.45;;;5.63;;
64208;SDS011;50527;52.414;13.226;2023-12-07T15:45:48;24.63;;;6.45;;
64208;SDS011;50527;52.414;13.226;2023-12-07T15:48:14;18.15;;;5.50;;
64208;SDS011;50527;52.414;13.226;2023-12-07T15:50:40;23.73;;;5.97;;
64208;SDS011;50527;52.414;13.226;2023-12-07T15:53:05;26.58;;;6.00;;
64208;SDS011;50527;52.414;13.226;2023-12-07T15:55:31;16.63;;;4.55;;
64208;SDS011;50527;52.414;13.226;2023-12-07T15:57:56;50.42;;;7.82;;
64208;SDS011;50527;52.414;13.226;2023-12-07T16:00:22;21.10;;;6.53;;
64208;SDS011;50527;52.414;13.226;2023-12-07T16:02:47;14.55;;;4.50;;
64208;SDS011;50527;52.414;13.226;2023-12-07T16:05:13;23.95;;;6.85;;
64208;SDS011;50527;52.414;13.226;2023-12-07T16:07:48;17.60;;;5.65;;
64208;SDS011;50527;52.414;13.226;2023-12-07T16:10:13;25.42;;;5.97;;
64208;SDS011;50527;52.414;13.226;2023-12-07T16:12:39;15.65;;;5.07;;
64208;SDS011;50527;52.414;13.226;2023-12-07T16:15:04;18.38;;;5.45;;
64208;SDS011;50527;52.414;13.226;2023-12-07T16:17:31;21.58;;;5.78;;
64208;SDS011;50527;52.414;13.226;2023-12-07T16:19:56;18.80;;;5.35;;
64208;SDS011;50527;52.414;13.226;2023-12-07T16:22:22;14.38;;;4.10;;
64208;SDS011;50527;52.414;13.226;2023-12-07T16:24:49;19.77;;;5.35;;
64208;SDS011;50527;52.414;13.226;2023-12-07T16:27:16;17.02;;;4.72;;
64208;SDS011;50527;52.414;13.226;2023-12-07T16:29:42;12.07;;;4.40;;
64208;SDS011;50527;52.414;13.226;2023-12-07T16:32:07;17.42;;;5.18;;
64208;SDS011;50527;52.414;13.226;2023-12-07T16:34:32;18.75;;;5.53;;
64208;SDS011;50527;52.414;13.226;2023-12-07T16:36:58;23.45;;;6.57;;
64208;SDS011;50527;52.414;13.226;2023-12-07T16:39:23;20.70;;;5.38;;
64208;SDS011;50527;52.414;13.226;2023-12-07T16:41:51;15.88;;;4.13;;
64208;SDS011;50527;52.414;13.226;2023-12-07T16:44:17;20.58;;;5.10;;
64208;SDS011;50527;52.414;13.226;2023-12-07T16:46:42;24.50;;;5.53;;
64208;SDS011;50527;52.414;13.226;2023-12-07T16:49:09;23.05;;;6.93;;
64208;SDS011;50527;52.414;13.226;2023-12-07T16:51:35;21.63;;;5.75;;
64208;SDS011;50527;52.414;13.226;2023-12-07T16:54:00;16.92;;;4.95;;
64208;SDS011;50527;52.414;13.226;2023-12-07T16:56:26;18.00;;;5.53;;
64208;SDS011;50527;52.414;13.226;2023-12-07T16:58:52;14.73;;;3.58;;
64208;SDS011;50527;52.414;13.226;2023-12-07T17:01:19;17.75;;;5.18;;
64208;SDS011;50527;52.414;13.226;2023-12-07T17:03:44;15.80;;;4.88;;
64208;SDS011;50527;52.414;13.226;2023-12-07T17:06:11;16.15;;;4.47;;
64208;SDS011;50527;52.414;13.226;2023-12-07T17:08:38;16.23;;;4.43;;
64208;SDS011;50527;52.414;13.226;2023-12-07T17:11:05;12.98;;;4.10;;
64208;SDS011;50527;52.414;13.226;2023-12-07T17:13:31;18.10;;;4.72;;
64208;SDS011;50527;52.414;13.226;2023-12-07T17:15:56;21.63;;;5.97;;
64208;SDS011;50527;52.414;13.226;2023-12-07T17:18:22;15.85;;;5.18;;
64208;SDS011;50527;52.414;13.226;2023-12-07T17:20:47;27.02;;;6.97;;
64208;SDS011;50527;52.414;13.226;2023-12-07T17:23:13;15.80;;;4.93;;
64208;SDS011;50527;52.414;13.226;2023-12-07T17:25:38;17.05;;;4.70;;
64208;SDS011;50527;52.414;13.226;2023-12-07T17:28:04;25.63;;;6.30;;
64208;SDS011;50527;52.414;13.226;2023-12-07T17:30:30;13.00;;;4.03;;
64208;SDS011;50527;52.414;13.226;2023-12-07T17:32:55;16.13;;;4.00;;
64208;SDS011;50527;52.414;13.226;2023-12-07T17:35:20;20.08;;;5.25;;
64208;SDS011;50527;52.414;13.226;2023-12-07T17:37:46;22.60;;;5.85;;
64208;SDS011;50527;52.414;13.226;2023-12-07T17:40:11;12.52;;;3.80;;
64208;SDS011;50527;52.414;13.226;2023-12-07T17:42:37;23.00;;;5.53;;
64208;SDS011;50527;52.414;13.226;2023-12-07T17:45:03;18.60;;;5.57;;
64208;SDS011;50527;52.414;13.226;2023-12-07T17:47:29;23.35;;;6.45;;
64208;SDS011;50527;52.414;13.226;2023-12-07T17:49:54;17.05;;;4.70;;
64208;SDS011;50527;52.414;13.226;2023-12-07T17:52:20;16.73;;;5.03;;
64208;SDS011;50527;52.414;13.226;2023-12-07T17:54:45;18.80;;;5.68;;
64208;SDS011;50527;52.414;13.226;2023-12-07T17:57:11;19.25;;;6.28;;
64208;SDS011;50527;52.414;13.226;2023-12-07T17:59:37;15.18;;;5.28;;
64208;SDS011;50527;52.414;13.226;2023-12-07T18:02:03;32.05;;;7.75;;
64208;SDS011;50527;52.414;13.226;2023-12-07T18:04:32;25.52;;;7.03;;
64208;SDS011;50527;52.414;13.226;2023-12-07T18:06:58;19.10;;;4.15;;
64208;SDS011;50527;52.414;13.226;2023-12-07T18:09:24;26.35;;;6.40;;
64208;SDS011;50527;52.414;13.226;2023-12-07T18:11:49;17.27;;;5.50;;
64208;SDS011;50527;52.414;13.226;2023-12-07T18:14:15;21.02;;;5.10;;
64208;SDS011;50527;52.414;13.226;2023-12-07T18:16:40;16.63;;;5.95;;
64208;SDS011;50527;52.414;13.226;2023-12-07T18:19:06;14.48;;;5.53;;
64208;SDS011;50527;52.414;13.226;2023-12-07T18:21:31;15.75;;;5.18;;
64208;SDS011;50527;52.414;13.226;2023-12-07T18:23:57;16.58;;;4.63;;
64208;SDS011;50527;52.414;13.226;2023-12-07T18:26:22;12.27;;;3.85;;
64208;SDS011;50527;52.414;13.226;2023-12-07T18:28:48;16.08;;;4.30;;
64208;SDS011;50527;52.414;13.226;2023-12-07T18:31:13;13.77;;;4.10;;
64208;SDS011;50527;52.414;13.226;2023-12-07T18:33:39;23.80;;;7.13;;
64208;SDS011;50527;52.414;13.226;2023-12-07T18:36:05;16.42;;;4.85;;
64208;SDS011;50527;52.414;13.226;2023-12-07T18:38:31;13.02;;;4.38;;
64208;SDS011;50527;52.414;13.226;2023-12-07T18:40:57;20.25;;;6.07;;
64208;SDS011;50527;52.414;13.226;2023-12-07T18:43:23;14.88;;;4.38;;
64208;SDS011;50527;52.414;13.226;2023-12-07T18:45:50;9.40;;;4.13;;
64208;SDS011;50527;52.414;13.226;2023-12-07T18:48:17;19.08;;;5.15;;
64208;SDS011;50527;52.414;13.226;2023-12-07T18:50:45;14.27;;;4.22;;
64208;SDS011;50527;52.414;13.226;2023-12-07T18:53:10;18.00;;;4.68;;
64208;SDS011;50527;52.414;13.226;2023-12-07T18:55:36;26.35;;;6.78;;
64208;SDS011;50527;52.414;13.226;2023-12-07T18:58:01;20.23;;;5.82;;
64208;SDS011;50527;52.414;13.226;2023-12-07T19:00:27;24.65;;;5.85;;
64208;SDS011;50527;52.414;13.226;2023-12-07T19:02:52;10.85;;;4.57;;
64208;SDS011;50527;52.414;13.226;2023-12-07T19:05:18;18.42;;;5.75;;
64208;SDS011;50527;52.414;13.226;2023-12-07T19:07:44;27.70;;;7.40;;
64208;SDS011;50527;52.414;13.226;2023-12-07T19:10:09;20.60;;;5.45;;
64208;SDS011;50527;52.414;13.226;2023-12-07T19:12:35;11.10;;;5.03;;
64208;SDS011;50527;52.414;13.226;2023-12-07T19:15:00;14.82;;;5.07;;
64208;SDS011;50527;52.414;13.226;2023-12-07T19:17:25;19.83;;;4.93;;
64208;SDS011;50527;52.414;13.226;2023-12-07T19:19:51;14.38;;;4.70;;
64208;SDS011;50527;52.414;13.226;2023-12-07T19:22:16;13.70;;;4.47;;
64208;SDS011;50527;52.414;13.226;2023-12-07T19:24:42;14.00;;;4.80;;
64208;SDS011;50527;52.414;13.226;2023-12-07T19:27:07;19.65;;;5.30;;
64208;SDS011;50527;52.414;13.226;2023-12-07T19:29:33;19.67;;;4.88;;
64208;SDS011;50527;52.414;13.226;2023-12-07T19:31:58;16.17;;;4.95;;
64208;SDS011;50527;52.414;13.226;2023-12-07T19:34:24;16.90;;;4.70;;
64208;SDS011;50527;52.414;13.226;2023-12-07T19:36:51;25.60;;;7.25;;
64208;SDS011;50527;52.414;13.226;2023-12-07T19:39:17;26.92;;;7.03;;
64208;SDS011;50527;52.414;13.226;2023-12-07T19:41:43;20.15;;;6.70;;
64208;SDS011;50527;52.414;13.226;2023-12-07T19:44:09;14.48;;;4.20;;
64208;SDS011;50527;52.414;13.226;2023-12-07T19:46:38;12.73;;;4.28;;
64208;SDS011;50527;52.414;13.226;2023-12-07T19:49:04;23.58;;;6.70;;
64208;SDS011;50527;52.414;13.226;2023-12-07T19:51:30;21.52;;;5.93;;
64208;SDS011;50527;52.414;13.226;2023-12-07T19:53:55;16.27;;;5.55;;
64208;SDS011;50527;52.414;13.226;2023-12-07T19:56:21;13.80;;;4.20;;
64208;SDS011;50527;52.414;13.226;2023-12-07T19:58:47;19.48;;;5.30;;
64208;SDS011;50527;52.414;13.226;2023-12-07T20:01:12;12.00;;;4.20;;